createdAt,value
2019-04-03T00:01:16.562Z,29.20
2019-04-03T00:04:06.695Z,23.27
2019-04-03T00:06:56.752Z,22.60
2019-04-03T00:09:46.475Z,36.60
2019-04-03T00:12:36.449Z,26.50
2019-04-03T00:15:26.137Z,31.70
2019-04-03T00:18:16.759Z,28.20
2019-04-03T00:21:06.844Z,27.80
2019-04-03T00:23:57.024Z,24.23
2019-04-03T00:26:45.795Z,24.00
2019-04-03T00:29:35.178Z,24.53
2019-04-03T00:32:24.160Z,24.90
2019-04-03T00:35:14.305Z,24.17
2019-04-03T00:38:04.078Z,28.03
2019-04-03T00:40:54.423Z,21.73
2019-04-03T00:43:44.103Z,24.17
2019-04-03T00:46:33.751Z,25.47
2019-04-03T00:49:25.697Z,36.50
2019-04-03T00:52:13.778Z,22.60
2019-04-03T00:55:04.395Z,23.70
2019-04-03T00:57:54.783Z,34.07
2019-04-03T01:00:45.448Z,35.80
2019-04-03T01:03:35.355Z,23.37
2019-04-03T01:06:25.129Z,26.47
2019-04-03T01:09:14.464Z,32.37
2019-04-03T01:12:03.767Z,29.50
2019-04-03T01:14:53.504Z,23.13
2019-04-03T01:17:43.284Z,30.27
2019-04-03T01:20:33.067Z,25.80
2019-04-03T01:23:22.703Z,22.43
2019-04-03T01:26:12.668Z,23.30
2019-04-03T01:29:02.848Z,33.03
2019-04-03T01:31:52.905Z,28.00
2019-04-03T01:34:42.694Z,26.03
2019-04-03T01:37:31.820Z,23.53
2019-04-03T01:40:27.196Z,30.40
2019-04-03T01:43:16.076Z,23.03
2019-04-03T01:46:05.395Z,30.10
2019-04-03T01:48:55.065Z,27.87
2019-04-03T01:51:45.014Z,34.77
2019-04-03T01:54:35.230Z,27.20
2019-04-03T01:57:25.278Z,29.87
2019-04-03T02:00:15.018Z,31.03
2019-04-03T02:03:04.963Z,24.97
2019-04-03T02:05:54.948Z,30.27
2019-04-03T02:08:45.299Z,30.67
2019-04-03T02:11:35.583Z,29.73
2019-04-03T02:14:25.515Z,25.63
2019-04-03T02:17:15.465Z,34.17
2019-04-03T02:20:05.732Z,32.00
2019-04-03T02:22:55.631Z,27.53
2019-04-03T02:25:45.321Z,35.60
2019-04-03T02:28:35.275Z,27.80
2019-04-03T02:31:25.301Z,28.30
2019-04-03T02:34:15.166Z,33.27
2019-04-03T02:37:04.897Z,32.97
2019-04-03T02:39:54.217Z,36.87
2019-04-03T02:42:43.578Z,31.90
2019-04-03T02:45:33.770Z,33.37
2019-04-03T02:48:23.230Z,27.83
2019-04-03T02:51:13.028Z,31.73
2019-04-03T02:54:03.225Z,26.73
2019-04-03T02:56:52.541Z,28.97
2019-04-03T02:59:42.332Z,24.80
2019-04-03T03:02:31.811Z,24.87
2019-04-03T03:05:27.020Z,26.27
2019-04-03T03:08:14.645Z,27.13
2019-04-03T03:11:04.518Z,32.07
2019-04-03T03:13:55.035Z,24.70
2019-04-03T03:16:49.294Z,25.97
2019-04-03T03:19:36.950Z,31.13
2019-04-03T03:22:27.943Z,26.00
2019-04-03T03:25:17.934Z,23.77
2019-04-03T03:28:08.780Z,24.00
2019-04-03T03:31:03.067Z,24.80
2019-04-03T03:33:50.248Z,24.23
2019-04-03T03:36:41.418Z,24.90
2019-04-03T03:39:32.288Z,29.10
2019-04-03T03:42:21.926Z,25.47
2019-04-03T03:45:11.731Z,25.00
2019-04-03T03:48:01.739Z,33.57
2019-04-03T03:50:55.630Z,23.77
2019-04-03T03:53:45.793Z,26.53
2019-04-03T03:56:34.973Z,33.53
2019-04-03T03:59:25.296Z,39.80
2019-04-03T04:02:14.699Z,24.47
2019-04-03T04:05:09.468Z,27.77
2019-04-03T04:07:56.049Z,23.80
2019-04-03T04:10:46.007Z,28.00
2019-04-03T04:13:36.001Z,28.37
2019-04-03T04:16:25.797Z,29.77
2019-04-03T04:19:15.901Z,27.30
2019-04-03T04:22:05.377Z,27.77
2019-04-03T04:24:54.848Z,34.83
2019-04-03T04:27:44.376Z,30.13
2019-04-03T04:30:34.992Z,28.33
2019-04-03T04:33:25.168Z,24.80
2019-04-03T04:36:15.402Z,23.40
2019-04-03T04:39:06.889Z,27.80
2019-04-03T04:41:56.640Z,26.80
2019-04-03T04:44:46.598Z,30.03
2019-04-03T04:47:36.420Z,25.40
2019-04-03T04:50:26.215Z,26.90
2019-04-03T04:53:19.306Z,27.70
2019-04-03T04:56:08.692Z,29.90
2019-04-03T04:58:58.242Z,28.23
2019-04-03T05:01:49.154Z,28.00
2019-04-03T05:04:39.849Z,25.83
2019-04-03T05:07:28.873Z,26.80
2019-04-03T05:10:20.059Z,34.70
2019-04-03T05:13:09.067Z,25.97
2019-04-03T05:15:59.831Z,25.60
2019-04-03T05:18:49.492Z,27.30
2019-04-03T05:21:39.378Z,29.03
2019-04-03T05:24:28.859Z,28.57
2019-04-03T05:27:19.956Z,28.67
2019-04-03T05:30:09.406Z,29.30
2019-04-03T05:32:59.222Z,35.60
2019-04-03T05:35:49.114Z,31.07
2019-04-03T05:38:38.953Z,27.77
2019-04-03T05:41:28.781Z,35.80
2019-04-03T05:44:18.963Z,28.43
2019-04-03T05:47:08.569Z,27.10
2019-04-03T05:49:58.181Z,34.83
2019-04-03T05:52:48.307Z,24.20
2019-04-03T05:55:40.397Z,28.20
2019-04-03T05:58:28.978Z,26.77
2019-04-03T06:01:19.077Z,22.70
2019-04-03T06:04:09.906Z,24.77
2019-04-03T06:07:00.275Z,28.53
2019-04-03T06:09:49.453Z,25.03
2019-04-03T06:12:38.745Z,25.70
2019-04-03T06:15:29.015Z,25.83
2019-04-03T06:18:18.917Z,25.93
2019-04-03T06:21:08.668Z,27.50
2019-04-03T07:59:35.874Z,34.40
2019-04-03T08:02:27.242Z,34.63
2019-04-03T08:05:17.743Z,39.27
2019-04-03T08:08:10.573Z,32.00
2019-04-03T08:11:01.974Z,31.27
2019-04-03T08:13:54.997Z,21.60
2019-04-03T08:16:47.502Z,15.03
2019-04-03T08:19:38.138Z,18.20
2019-04-03T08:22:28.966Z,17.53
2019-04-03T08:25:20.695Z,16.90
2019-04-03T08:28:11.978Z,18.07
2019-04-03T08:31:03.454Z,15.07
2019-04-03T08:33:54.476Z,16.53
2019-04-03T08:36:44.873Z,15.30
2019-04-03T08:39:35.588Z,14.30
2019-04-03T08:42:28.077Z,18.57
2019-04-03T08:45:21.139Z,21.20
2019-04-03T08:48:11.353Z,13.20
2019-04-03T08:51:03.355Z,13.43
2019-04-03T08:53:54.934Z,14.27
2019-04-03T08:56:48.330Z,14.07
2019-04-03T08:59:37.986Z,13.90
2019-04-03T09:02:29.127Z,13.47
2019-04-03T09:05:20.122Z,13.30
2019-04-03T09:08:12.274Z,13.27
2019-04-03T09:11:05.108Z,13.60
2019-04-03T09:13:56.398Z,14.63
2019-04-03T09:16:47.762Z,16.60
2019-04-03T09:19:40.626Z,13.33
2019-04-03T09:22:31.247Z,12.80
2019-04-03T09:25:22.610Z,13.20
2019-04-03T09:28:13.741Z,13.37
2019-04-03T09:31:04.550Z,12.50
2019-04-03T09:33:57.006Z,13.10
2019-04-03T09:36:48.766Z,12.37
2019-04-03T09:39:39.555Z,13.73
2019-04-03T09:42:30.960Z,12.90
2019-04-03T09:45:22.591Z,12.73
2019-04-03T09:48:14.217Z,12.90
2019-04-03T09:51:04.688Z,13.27
2019-04-03T09:53:57.142Z,13.17
2019-04-03T09:56:59.332Z,13.10
2019-04-03T09:59:38.754Z,12.80
2019-04-03T10:02:29.376Z,12.80
2019-04-03T10:05:20.667Z,16.20
2019-04-03T10:08:11.975Z,13.40
2019-04-03T10:11:02.471Z,12.67
2019-04-03T10:13:54.941Z,12.70
2019-04-03T10:16:45.419Z,13.60
2019-04-03T10:19:36.729Z,12.93
2019-04-03T10:22:27.190Z,13.47
2019-04-03T10:25:18.719Z,13.10
2019-04-03T10:28:10.208Z,12.80
2019-04-03T10:31:01.521Z,13.07
2019-04-03T10:33:51.988Z,12.90
2019-04-03T10:36:43.811Z,13.73
2019-04-03T10:39:35.165Z,18.63
2019-04-03T10:42:26.175Z,13.63
2019-04-03T10:45:16.754Z,12.80
2019-04-03T10:48:08.145Z,12.83
2019-04-03T10:50:59.621Z,14.33
2019-04-03T10:53:51.524Z,13.00
2019-04-03T10:56:43.234Z,13.20
2019-04-03T10:59:34.784Z,13.17
2019-04-03T11:02:25.334Z,14.63
2019-04-03T11:05:17.352Z,13.00
2019-04-03T11:08:07.540Z,14.67
2019-04-03T11:10:58.961Z,13.53
2019-04-03T11:13:49.746Z,13.17
2019-04-03T11:16:40.626Z,14.00
2019-04-03T11:19:32.800Z,14.33
2019-04-03T11:22:23.849Z,14.80
2019-04-03T11:25:16.261Z,14.90
2019-04-03T11:28:06.914Z,15.33
2019-04-03T11:31:01.254Z,13.43
2019-04-03T11:33:51.245Z,12.93
2019-04-03T11:36:42.852Z,13.43
2019-04-03T11:39:37.161Z,16.17
2019-04-03T11:42:29.202Z,15.93
2019-04-03T11:45:19.276Z,13.93
2019-04-03T11:48:10.220Z,15.40
2019-04-03T11:51:00.667Z,15.07
2019-04-03T11:53:51.153Z,15.53
2019-04-03T11:56:44.908Z,14.43
2019-04-03T11:59:34.770Z,14.53
2019-04-03T12:02:25.289Z,15.40
2019-04-03T12:05:20.778Z,14.30
2019-04-03T12:08:12.349Z,15.70
2019-04-03T12:11:05.433Z,15.40
2019-04-03T12:13:55.533Z,14.30
2019-04-03T12:16:46.443Z,15.43
2019-04-03T12:19:37.826Z,14.57
2019-04-03T12:22:31.249Z,15.70
2019-04-03T12:25:22.651Z,15.50
2019-04-03T12:28:17.758Z,18.57
2019-04-03T12:31:23.722Z,14.50
2019-04-03T12:34:15.193Z,15.67
2019-04-03T12:37:05.407Z,16.73
2019-04-03T12:40:00.227Z,15.87
2019-04-03T12:42:50.042Z,20.73
2019-04-03T12:45:41.185Z,19.73
2019-04-03T12:48:33.294Z,15.13
2019-04-03T12:51:25.379Z,15.03
2019-04-03T12:54:19.840Z,15.70
2019-04-03T12:57:09.083Z,15.53
2019-04-03T13:00:00.465Z,21.37
2019-04-03T13:02:52.922Z,33.47
2019-04-03T13:05:45.347Z,14.20
2019-04-03T13:08:40.619Z,16.20
2019-04-03T13:11:33.027Z,16.13
2019-04-03T13:14:26.439Z,14.23
2019-04-03T13:17:15.658Z,15.57
2019-04-03T13:20:07.583Z,14.70
2019-04-03T13:22:59.402Z,17.00
2019-04-03T13:25:53.000Z,15.77
2019-04-03T13:28:43.329Z,13.70
2019-04-03T13:31:35.415Z,14.13
2019-04-03T13:34:26.932Z,16.00
2019-04-03T13:37:17.848Z,15.73
2019-04-03T13:40:11.441Z,16.07
2019-04-03T13:43:02.918Z,17.03
2019-04-03T13:45:54.020Z,15.33
2019-04-03T13:48:45.224Z,15.60
2019-04-03T13:51:36.266Z,16.23
2019-04-03T13:54:27.255Z,14.97
2019-04-03T13:57:18.291Z,17.47
2019-04-03T14:00:20.595Z,19.73
2019-04-03T14:03:03.031Z,15.57
2019-04-03T14:05:53.436Z,18.03
2019-04-03T14:08:45.602Z,18.00
2019-04-03T14:11:37.714Z,21.07
2019-04-03T14:14:28.404Z,15.07
2019-04-03T14:17:19.375Z,17.13
2019-04-03T14:20:13.203Z,16.70
2019-04-03T14:23:04.782Z,21.00
2019-04-03T14:26:04.092Z,15.80
2019-04-03T14:28:46.692Z,17.50
2019-04-03T14:31:38.206Z,20.20
2019-04-03T14:34:30.679Z,17.77
2019-04-03T14:37:25.829Z,16.27
2019-04-03T14:40:13.623Z,16.00
2019-04-03T14:43:04.280Z,21.40
2019-04-03T14:45:55.229Z,14.70
2019-04-03T14:48:46.029Z,18.53
2019-04-03T14:51:37.651Z,19.87
2019-04-03T14:54:30.468Z,18.67
2019-04-03T14:57:23.157Z,17.80
2019-04-03T15:00:30.851Z,20.00
2019-04-03T15:03:05.413Z,18.03
2019-04-03T15:05:57.113Z,18.30
2019-04-03T15:08:48.023Z,20.00
2019-04-03T15:11:38.737Z,20.37
2019-04-03T15:14:30.025Z,18.10
2019-04-03T15:17:21.405Z,17.27
2019-04-03T15:20:12.707Z,15.43
2019-04-03T15:23:04.922Z,15.13
2019-04-03T15:25:55.116Z,16.20
2019-04-03T15:28:45.558Z,16.60
2019-04-03T15:31:36.939Z,21.30
2019-04-03T15:34:28.829Z,19.03
2019-04-03T15:37:19.900Z,18.70
2019-04-03T15:40:11.815Z,19.57
2019-04-03T15:43:03.649Z,16.97
2019-04-03T15:45:56.613Z,17.00
2019-04-03T15:48:47.744Z,14.73
2019-04-03T15:51:40.055Z,20.37
2019-04-03T15:54:33.044Z,17.10
2019-04-03T15:57:23.581Z,17.27
2019-04-03T16:00:15.955Z,16.50
2019-04-03T16:03:08.487Z,18.43
2019-04-03T16:06:03.494Z,20.30
2019-04-03T16:08:53.575Z,16.50
2019-04-03T16:11:43.849Z,15.87
2019-04-03T16:14:35.125Z,16.67
2019-04-03T16:17:25.832Z,19.40
2019-04-03T16:20:17.870Z,16.93
2019-04-03T16:23:09.198Z,20.27
2019-04-03T16:26:00.320Z,22.60
2019-04-03T16:28:51.601Z,20.70
2019-04-03T16:31:42.964Z,20.00
2019-04-03T16:34:33.932Z,18.17
2019-04-03T16:37:24.617Z,21.17
2019-04-03T16:40:16.038Z,16.60
2019-04-03T16:43:06.504Z,22.80
2019-04-03T16:45:56.999Z,19.90
2019-04-03T16:48:49.895Z,17.87
2019-04-03T16:51:40.573Z,17.90
2019-04-03T16:54:33.618Z,20.00
2019-04-03T16:57:24.350Z,26.00
2019-04-03T17:00:16.502Z,18.97
2019-04-03T17:03:08.016Z,17.80
2019-04-03T17:05:59.822Z,20.63
2019-04-03T17:08:51.034Z,18.37
2019-04-03T17:11:44.908Z,19.53
2019-04-03T17:14:34.445Z,17.77
2019-04-03T17:17:25.934Z,19.23
2019-04-03T17:20:18.515Z,19.63
2019-04-03T17:23:12.283Z,20.37
2019-04-03T17:26:02.129Z,15.50
2019-04-03T17:29:02.492Z,16.03
2019-04-03T17:31:45.850Z,16.77
2019-04-03T17:34:39.969Z,18.50
2019-04-03T17:37:30.915Z,20.10
2019-04-03T17:40:22.094Z,18.33
2019-04-03T17:43:13.624Z,18.83
2019-04-03T17:46:05.962Z,16.17
2019-04-03T17:48:57.970Z,18.60
2019-04-03T17:51:49.397Z,16.77
2019-04-03T17:54:40.827Z,14.83
2019-04-03T17:57:31.436Z,28.00
2019-04-03T18:00:24.012Z,18.17
2019-04-03T18:03:15.686Z,17.20
2019-04-03T18:06:18.515Z,17.93
2019-04-03T18:09:10.598Z,16.93
2019-04-03T18:12:01.523Z,16.00
2019-04-03T18:14:52.930Z,19.40
2019-04-03T18:17:45.965Z,19.70
2019-04-03T18:20:38.868Z,20.50
2019-04-03T18:23:29.507Z,16.37
2019-04-03T18:26:19.854Z,18.30
2019-04-03T18:29:13.843Z,16.03
2019-04-03T18:32:05.917Z,16.77
2019-04-03T18:34:59.841Z,17.13
2019-04-03T18:37:51.057Z,21.60
2019-04-03T18:40:45.568Z,16.67
2019-04-03T18:43:39.689Z,17.60
2019-04-03T18:46:34.375Z,20.03
2019-04-03T18:49:24.399Z,15.57
2019-04-03T18:52:15.337Z,19.10
2019-04-03T18:55:06.582Z,22.43
2019-04-03T18:57:58.698Z,18.43
2019-04-03T19:00:49.471Z,19.10
2019-04-03T19:03:44.217Z,17.83
2019-04-03T19:06:36.124Z,23.10
2019-04-03T19:09:31.309Z,15.67
2019-04-03T19:12:35.069Z,14.43
2019-04-03T19:15:16.006Z,16.80
2019-04-03T19:18:18.987Z,17.50
2019-04-03T19:21:01.103Z,17.67
2019-04-03T19:23:53.690Z,16.60
2019-04-03T19:26:43.589Z,16.20
2019-04-03T19:29:35.767Z,18.90
2019-04-03T19:32:28.779Z,20.67
2019-04-03T19:35:19.323Z,15.40
2019-04-03T19:38:13.384Z,17.50
2019-04-03T19:41:04.700Z,19.27
2019-04-03T19:43:55.320Z,18.77
2019-04-03T19:46:46.182Z,18.97
2019-04-03T19:49:40.207Z,17.87
2019-04-03T19:52:32.936Z,17.37
2019-04-03T19:55:24.467Z,19.83
2019-04-03T19:58:18.335Z,17.60
2019-04-03T20:01:11.642Z,20.70
2019-04-03T20:04:02.325Z,26.10
2019-04-03T20:06:54.767Z,17.93
2019-04-03T20:09:45.392Z,17.83
2019-04-03T20:12:37.708Z,19.50
2019-04-03T20:15:28.145Z,23.00
2019-04-03T20:18:18.728Z,18.10
2019-04-03T20:21:10.382Z,19.27
2019-04-03T20:24:01.509Z,18.43
2019-04-03T20:26:52.787Z,23.23
2019-04-03T20:29:44.278Z,22.70
2019-04-03T20:32:35.779Z,19.93
2019-04-03T20:35:26.402Z,25.37
2019-04-03T20:38:17.546Z,19.70
2019-04-03T20:41:08.567Z,18.03
2019-04-03T20:43:58.916Z,20.63
2019-04-03T20:46:49.337Z,18.20
2019-04-03T20:49:40.434Z,19.30
2019-04-03T20:52:31.043Z,19.23
2019-04-03T20:55:24.759Z,17.47
2019-04-03T20:58:18.012Z,21.63
2019-04-03T21:01:10.349Z,18.53
2019-04-03T21:04:05.055Z,19.77
2019-04-03T21:06:59.059Z,18.70
2019-04-03T21:09:56.580Z,19.93
2019-04-03T21:12:48.166Z,16.47
2019-04-03T21:15:39.319Z,16.17
2019-04-03T21:18:30.282Z,20.03
2019-04-03T21:21:21.584Z,17.83
2019-04-03T21:24:12.564Z,14.70
2019-04-03T21:27:02.936Z,17.67
2019-04-03T21:29:54.642Z,17.17
2019-04-03T21:32:45.996Z,16.73
2019-04-03T21:35:36.409Z,18.57
2019-04-03T21:38:26.537Z,21.30
2019-04-03T21:41:20.484Z,18.67
2019-04-03T21:44:09.205Z,17.97
2019-04-03T21:47:00.507Z,18.50
2019-04-03T21:49:51.710Z,23.57
2019-04-03T21:52:41.905Z,18.93
2019-04-03T21:55:34.635Z,24.43
2019-04-03T21:58:25.283Z,19.93
2019-04-03T22:01:24.937Z,16.27
2019-04-03T22:04:15.644Z,16.13
2019-04-03T22:07:07.621Z,19.97
2019-04-03T22:09:59.967Z,16.70
2019-04-03T22:12:50.927Z,18.57
2019-04-03T22:15:41.986Z,21.20
2019-04-03T22:18:33.438Z,16.17
2019-04-03T22:21:24.818Z,14.67
2019-04-03T22:24:15.915Z,19.10
2019-04-03T22:27:06.987Z,25.73
2019-04-03T22:29:57.728Z,16.87
2019-04-03T22:32:48.696Z,16.73
2019-04-03T22:35:40.087Z,14.90
2019-04-03T22:38:31.439Z,18.73
2019-04-03T22:41:21.906Z,15.83
2019-04-03T22:44:15.030Z,19.13
2019-04-03T22:47:05.533Z,19.07
2019-04-03T22:49:56.630Z,15.90
2019-04-03T22:52:47.018Z,22.63
2019-04-03T22:55:38.468Z,20.40
2019-04-03T22:58:29.481Z,15.47
2019-04-03T23:01:21.300Z,15.77
2019-04-03T23:04:13.762Z,16.17
2019-04-03T23:07:04.829Z,18.20
2019-04-03T23:09:56.769Z,14.87
2019-04-03T23:12:47.075Z,15.30
2019-04-03T23:15:39.405Z,16.00
2019-04-03T23:18:30.971Z,15.87
2019-04-03T23:21:23.860Z,16.10
2019-04-03T23:24:15.572Z,21.30
2019-04-03T23:27:06.759Z,17.27
2019-04-03T23:29:57.722Z,15.90
2019-04-03T23:32:48.969Z,15.13
2019-04-03T23:35:40.026Z,14.80
2019-04-03T23:38:30.587Z,13.97
2019-04-03T23:41:20.653Z,16.50
2019-04-03T23:44:11.818Z,18.57
2019-04-03T23:47:03.117Z,15.93
2019-04-03T23:49:54.312Z,20.70
2019-04-03T23:52:45.412Z,19.97
2019-04-03T23:55:36.791Z,15.60
2019-04-03T23:58:29.013Z,19.43
